createdAt,value
2022-10-25T00:00:22.634Z,64.40
2022-10-25T00:02:56.317Z,64.30
2022-10-25T00:05:29.893Z,64.30
2022-10-25T00:08:03.508Z,64.30
2022-10-25T00:10:38.164Z,64.40
2022-10-25T00:13:13.335Z,64.40
2022-10-25T00:15:46.896Z,64.40
2022-10-25T00:18:20.504Z,64.50
2022-10-25T00:20:54.293Z,64.50
2022-10-25T00:23:27.847Z,64.50
2022-10-25T00:26:02.306Z,64.50
2022-10-25T00:28:37.473Z,64.50
2022-10-25T00:31:12.405Z,64.40
2022-10-25T00:33:46.573Z,64.40
2022-10-25T00:36:21.120Z,64.50
2022-10-25T00:38:55.172Z,64.50
2022-10-25T00:41:29.973Z,64.50
2022-10-25T00:44:22.676Z,64.40
2022-10-25T00:46:57.804Z,64.40
2022-10-25T00:49:33.010Z,64.40
2022-10-25T00:52:08.087Z,64.40
2022-10-25T00:54:44.195Z,64.30
2022-10-25T00:57:20.315Z,64.30
2022-10-25T00:59:53.987Z,64.30
2022-10-25T01:02:29.389Z,64.30
2022-10-25T01:05:03.428Z,64.30
2022-10-25T01:07:37.317Z,64.30
2022-10-25T01:10:11.017Z,64.30
2022-10-25T01:12:47.455Z,64.30
2022-10-25T01:15:25.557Z,64.30
2022-10-25T01:18:05.283Z,64.30
2022-10-25T01:20:50.855Z,64.30
2022-10-25T01:23:35.641Z,64.40
2022-10-25T01:26:21.717Z,64.50
2022-10-25T01:29:03.090Z,64.50
2022-10-25T01:31:41.472Z,64.40
2022-10-25T01:34:16.998Z,64.30
2022-10-25T01:36:57.994Z,64.40
2022-10-25T01:39:33.915Z,64.40
2022-10-25T01:42:08.674Z,64.40
2022-10-25T01:44:50.520Z,64.50
2022-10-25T01:47:27.022Z,64.50
2022-10-25T01:50:02.292Z,64.60
2022-10-25T01:52:36.174Z,64.50
2022-10-25T01:55:10.481Z,64.50
2022-10-25T01:57:52.039Z,64.50
2022-10-25T02:00:26.521Z,64.60
2022-10-25T02:03:07.989Z,64.60
2022-10-25T02:05:47.016Z,64.50
2022-10-25T02:08:26.137Z,64.60
2022-10-25T02:11:03.275Z,64.60
2022-10-25T02:13:42.686Z,64.50
2022-10-25T02:16:17.699Z,64.60
2022-10-25T02:18:55.017Z,64.60
2022-10-25T02:21:29.769Z,64.50
2022-10-25T02:24:06.463Z,64.60
2022-10-25T02:26:40.533Z,64.50
2022-10-25T02:29:15.003Z,64.60
2022-10-25T02:31:48.652Z,64.50
2022-10-25T02:34:23.733Z,64.50
2022-10-25T02:36:57.267Z,64.50
2022-10-25T02:39:31.743Z,64.50
2022-10-25T02:42:05.921Z,64.50
2022-10-25T02:44:39.536Z,64.50
2022-10-25T02:47:13.367Z,64.50
2022-10-25T02:49:48.435Z,64.40
2022-10-25T02:52:22.023Z,64.50
2022-10-25T02:54:55.635Z,64.50
2022-10-25T02:57:33.662Z,64.50
2022-10-25T03:00:08.205Z,64.60
2022-10-25T03:02:41.943Z,64.50
2022-10-25T03:05:17.037Z,64.50
2022-10-25T03:07:50.647Z,64.50
2022-10-25T03:10:24.214Z,64.50
2022-10-25T03:12:57.854Z,64.50
2022-10-25T03:15:31.389Z,64.50
2022-10-25T03:18:05.397Z,64.50
2022-10-25T03:20:41.165Z,64.50
2022-10-25T03:23:15.071Z,64.60
2022-10-25T03:25:50.830Z,64.50
2022-10-25T03:28:27.641Z,64.60
2022-10-25T03:31:01.891Z,64.60
2022-10-25T03:33:35.403Z,64.50
2022-10-25T03:36:10.938Z,64.50
2022-10-25T03:38:44.571Z,64.50
2022-10-25T03:41:18.058Z,64.50
2022-10-25T03:43:51.669Z,64.50
2022-10-25T03:46:25.246Z,64.50
2022-10-25T03:48:59.054Z,64.50
2022-10-25T03:51:34.036Z,64.50
2022-10-25T03:54:07.598Z,64.50
2022-10-25T03:56:41.782Z,64.50
2022-10-25T03:59:15.425Z,64.60
2022-10-25T04:01:49.097Z,64.60
2022-10-25T04:04:22.811Z,64.60
2022-10-25T04:06:57.929Z,64.60
2022-10-25T04:09:31.533Z,64.60
2022-10-25T04:12:05.343Z,64.60
2022-10-25T04:14:38.926Z,64.70
2022-10-25T04:17:12.550Z,64.70
2022-10-25T04:19:46.087Z,64.70
2022-10-25T04:22:21.164Z,64.70
2022-10-25T04:24:54.768Z,64.70
2022-10-25T04:27:28.377Z,64.70
2022-10-25T04:30:01.992Z,64.70
2022-10-25T04:32:36.613Z,64.70
2022-10-25T04:35:10.624Z,64.60
2022-10-25T04:37:45.644Z,64.70
2022-10-25T04:40:24.048Z,64.80
2022-10-25T04:43:02.491Z,64.70
2022-10-25T04:45:36.257Z,64.70
2022-10-25T04:48:09.851Z,64.70
2022-10-25T04:50:43.735Z,64.80
2022-10-25T04:53:18.756Z,64.70
2022-10-25T04:55:57.062Z,64.80
2022-10-25T04:58:31.593Z,64.80
2022-10-25T05:01:06.406Z,64.80
2022-10-25T05:03:40.082Z,64.80
2022-10-25T05:06:14.804Z,64.70
2022-10-25T05:08:50.827Z,64.80
2022-10-25T05:11:25.758Z,64.80
2022-10-25T05:13:59.402Z,64.90
2022-10-25T05:16:35.067Z,64.80
2022-10-25T05:19:08.822Z,64.90
2022-10-25T05:21:42.365Z,64.90
2022-10-25T05:24:17.488Z,64.90
2022-10-25T05:26:51.040Z,64.80
2022-10-25T05:29:25.054Z,64.80
2022-10-25T05:31:58.584Z,64.70
2022-10-25T05:34:32.150Z,64.80
2022-10-25T05:37:05.792Z,64.80
2022-10-25T05:39:40.908Z,64.70
2022-10-25T05:42:14.538Z,64.80
2022-10-25T05:44:48.366Z,64.70
2022-10-25T05:47:21.948Z,64.60
2022-10-25T05:49:55.698Z,64.70
2022-10-25T05:52:29.271Z,64.50
2022-10-25T05:55:04.490Z,64.30
2022-10-25T05:57:38.148Z,64.30
2022-10-25T06:00:12.244Z,64.20
2022-10-25T06:02:46.089Z,64.40
2022-10-25T06:05:21.939Z,64.50
2022-10-25T06:07:55.530Z,64.50
2022-10-25T06:10:30.580Z,64.00
2022-10-25T06:13:04.549Z,63.80
2022-10-25T06:15:38.410Z,63.30
2022-10-25T06:18:12.278Z,63.20
2022-10-25T06:20:45.950Z,63.10
2022-10-25T06:23:19.516Z,62.80
2022-10-25T06:25:54.807Z,62.70
2022-10-25T06:28:28.369Z,62.50
2022-10-25T06:31:02.414Z,62.60
2022-10-25T06:33:35.965Z,62.20
2022-10-25T06:36:14.938Z,59.30
2022-10-25T06:38:48.977Z,56.10
2022-10-25T06:41:25.080Z,54.20
2022-10-25T06:44:05.211Z,55.50
2022-10-25T06:47:11.701Z,54.50
2022-10-25T06:49:34.708Z,54.60
2022-10-25T06:52:08.376Z,55.60
2022-10-25T06:54:42.058Z,55.70
2022-10-25T06:57:17.155Z,54.80
2022-10-25T06:59:50.770Z,55.00
2022-10-25T07:02:24.563Z,55.70
2022-10-25T07:04:58.375Z,55.70
2022-10-25T07:07:32.076Z,55.50
2022-10-25T07:10:06.011Z,55.80
2022-10-25T07:12:41.084Z,55.20
2022-10-25T07:15:14.735Z,55.50
2022-10-25T07:17:48.662Z,55.80
2022-10-25T07:20:22.493Z,55.60
2022-10-25T07:22:59.952Z,55.60
2022-10-25T07:25:34.787Z,55.30
2022-10-25T07:28:09.771Z,55.20
2022-10-25T07:30:47.574Z,55.40
2022-10-25T07:33:21.679Z,55.30
2022-10-25T07:36:11.589Z,55.30
2022-10-25T07:38:45.947Z,55.50
2022-10-25T07:41:19.671Z,55.60
2022-10-25T07:43:55.580Z,55.50
2022-10-25T07:46:29.165Z,55.40
2022-10-25T07:49:02.879Z,55.60
2022-10-25T07:51:36.461Z,55.40
2022-10-25T07:54:10.164Z,55.20
2022-10-25T07:56:43.734Z,55.20
2022-10-25T07:59:19.094Z,55.10
2022-10-25T08:01:53.209Z,54.80
2022-10-25T08:04:29.376Z,54.70
2022-10-25T08:07:03.209Z,54.70
2022-10-25T08:09:38.773Z,54.90
2022-10-25T08:12:12.532Z,54.90
2022-10-25T08:14:47.605Z,55.20
2022-10-25T08:17:23.366Z,55.30
2022-10-25T08:19:57.276Z,55.30
2022-10-25T08:22:30.968Z,55.40
2022-10-25T08:25:05.430Z,55.50
2022-10-25T08:27:39.119Z,55.40
2022-10-25T08:30:14.481Z,55.40
2022-10-25T08:32:48.057Z,55.40
2022-10-25T08:35:21.770Z,55.30
2022-10-25T08:37:55.460Z,55.20
2022-10-25T08:40:32.889Z,55.10
2022-10-25T08:43:10.318Z,55.10
2022-10-25T08:45:52.274Z,55.00
2022-10-25T08:48:27.878Z,55.10
2022-10-25T08:51:04.596Z,55.00
2022-10-25T08:53:40.585Z,54.90
2022-10-25T08:56:17.203Z,54.90
2022-10-25T08:58:52.985Z,54.80
2022-10-25T09:01:29.744Z,54.80
2022-10-25T09:04:03.641Z,54.90
2022-10-25T09:06:40.410Z,54.80
2022-10-25T09:09:23.171Z,54.90
2022-10-25T09:12:00.800Z,54.50
2022-10-25T09:14:41.499Z,54.50
2022-10-25T09:17:18.805Z,54.30
2022-10-25T09:19:57.900Z,54.50
2022-10-25T09:22:32.325Z,54.50
2022-10-25T09:25:09.549Z,54.40
2022-10-25T09:27:48.975Z,54.30
2022-10-25T09:30:22.869Z,54.90
2022-10-25T09:33:01.474Z,54.30
2022-10-25T09:35:40.897Z,54.30
2022-10-25T09:38:18.116Z,54.30
2022-10-25T09:40:56.891Z,54.40
2022-10-25T09:43:33.089Z,54.40
2022-10-25T09:46:08.312Z,54.20
2022-10-25T09:48:46.623Z,54.00
2022-10-25T09:51:23.720Z,54.20
2022-10-25T09:53:58.090Z,53.90
2022-10-25T09:56:31.820Z,53.90
2022-10-25T09:59:05.362Z,53.80
2022-10-25T10:01:40.350Z,53.60
2022-10-25T10:04:26.853Z,53.60
2022-10-25T10:07:03.232Z,53.90
2022-10-25T10:09:41.048Z,53.90
2022-10-25T10:12:19.490Z,53.80
2022-10-25T10:14:56.321Z,53.50
2022-10-25T10:17:31.252Z,53.20
2022-10-25T10:20:10.747Z,53.20
2022-10-25T10:25:25.625Z,52.70
2022-10-25T10:27:59.527Z,52.60
2022-10-25T10:30:33.334Z,52.50
2022-10-25T10:33:09.768Z,52.50
2022-10-25T10:35:44.950Z,52.60
2022-10-25T10:38:25.949Z,52.40
2022-10-25T10:41:14.737Z,52.70
2022-10-25T10:43:48.246Z,52.70
2022-10-25T10:46:24.828Z,52.70
2022-10-25T10:48:59.252Z,52.70
2022-10-25T10:51:43.914Z,52.60
2022-10-25T10:54:26.645Z,52.80
2022-10-25T10:57:01.346Z,52.80
2022-10-25T10:59:40.656Z,52.70
2022-10-25T11:02:21.787Z,52.60
2022-10-25T11:04:56.466Z,52.40
2022-10-25T11:07:35.602Z,52.50
2022-10-25T11:10:23.045Z,53.00
2022-10-25T11:13:07.163Z,52.70
2022-10-25T11:15:58.682Z,52.80
2022-10-25T11:18:37.904Z,52.80
2022-10-25T11:21:15.225Z,52.70
2022-10-25T11:24:00.377Z,52.50
2022-10-25T11:26:36.097Z,52.50
2022-10-25T11:29:15.618Z,53.00
2022-10-25T11:31:55.087Z,52.30
2022-10-25T11:34:34.120Z,52.60
2022-10-25T11:37:11.738Z,53.00
2022-10-25T11:39:54.871Z,52.80
2022-10-25T11:42:50.545Z,52.80
2022-10-25T11:45:29.672Z,52.90
2022-10-25T11:48:22.241Z,52.80
2022-10-25T11:51:01.920Z,52.90
2022-10-25T11:53:45.333Z,53.10
2022-10-25T11:56:25.002Z,53.40
2022-10-25T11:59:03.986Z,53.40
2022-10-25T12:01:42.526Z,53.40
2022-10-25T12:04:28.479Z,53.40
2022-10-25T12:07:05.900Z,53.40
2022-10-25T12:09:43.931Z,53.40
2022-10-25T12:12:20.368Z,53.30
2022-10-25T12:14:56.442Z,53.20
2022-10-25T12:17:32.464Z,53.40
2022-10-25T12:20:07.349Z,53.40
2022-10-25T12:22:43.015Z,53.40
2022-10-25T12:25:19.842Z,53.60
2022-10-25T12:28:00.906Z,53.50
2022-10-25T12:30:35.730Z,53.80
2022-10-25T12:33:14.455Z,53.70
2022-10-25T12:35:51.034Z,53.70
2022-10-25T12:38:28.859Z,53.80
2022-10-25T12:41:05.094Z,53.90
2022-10-25T12:43:45.130Z,54.10
2022-10-25T12:46:36.420Z,54.20
2022-10-25T12:49:23.328Z,54.10
2022-10-25T12:52:02.546Z,54.20
2022-10-25T12:54:42.685Z,54.60
2022-10-25T12:57:21.019Z,54.60
2022-10-25T13:00:03.133Z,54.50
2022-10-25T13:02:56.069Z,54.60
2022-10-25T13:05:34.704Z,54.80
2022-10-25T13:08:08.437Z,55.40
2022-10-25T13:10:44.250Z,55.60
2022-10-25T13:13:19.384Z,55.70
2022-10-25T13:15:55.201Z,55.40
2022-10-25T13:18:39.237Z,55.40
2022-10-25T13:21:14.151Z,55.60
2022-10-25T13:24:05.731Z,55.60
2022-10-25T13:26:58.239Z,55.60
2022-10-25T13:29:49.459Z,55.60
2022-10-25T13:32:24.618Z,55.90
2022-10-25T13:34:59.293Z,55.60
2022-10-25T13:37:43.446Z,55.60
2022-10-25T13:40:24.910Z,56.20
2022-10-25T13:43:01.120Z,55.90
2022-10-25T13:45:36.902Z,55.70
2022-10-25T13:48:17.465Z,55.80
2022-10-25T13:50:54.326Z,55.80
2022-10-25T13:53:34.403Z,55.90
2022-10-25T13:56:09.293Z,56.10
2022-10-25T13:58:45.516Z,55.80
2022-10-25T14:01:37.915Z,56.00
2022-10-25T14:04:22.163Z,55.90
2022-10-25T14:06:56.095Z,56.40
2022-10-25T14:09:33.589Z,56.20
2022-10-25T14:12:11.937Z,56.00
2022-10-25T14:14:51.654Z,56.10
2022-10-25T14:17:32.523Z,56.00
2022-10-25T14:22:53.069Z,56.00
2022-10-25T14:25:29.979Z,55.90
2022-10-25T14:28:14.603Z,55.70
2022-10-25T14:30:49.053Z,55.60
2022-10-25T14:33:23.921Z,55.70
2022-10-25T14:36:00.317Z,55.40
2022-10-25T14:38:36.536Z,55.50
2022-10-25T14:41:13.863Z,55.90
2022-10-25T14:43:47.969Z,55.60
2022-10-25T14:46:22.166Z,55.60
2022-10-25T14:48:57.498Z,55.80
2022-10-25T14:51:34.903Z,55.90
2022-10-25T14:54:09.732Z,56.30
2022-10-25T14:56:49.414Z,56.40
2022-10-25T14:59:26.667Z,56.60
2022-10-25T15:02:02.795Z,56.30
2022-10-25T15:04:39.538Z,56.20
2022-10-25T15:07:20.260Z,56.00
2022-10-25T15:09:54.864Z,56.20
2022-10-25T15:12:28.958Z,56.00
2022-10-25T15:15:26.697Z,56.00
2022-10-25T15:18:00.250Z,55.80
2022-10-25T15:20:34.679Z,55.80
2022-10-25T15:23:16.842Z,55.60
2022-10-25T15:25:50.506Z,55.40
2022-10-25T15:28:24.382Z,55.30
2022-10-25T15:31:03.767Z,55.60
2022-10-25T15:33:37.454Z,55.30
2022-10-25T15:36:21.149Z,55.50
2022-10-25T15:39:11.705Z,55.40
2022-10-25T15:41:48.099Z,55.40
2022-10-25T15:44:21.850Z,55.50
2022-10-25T15:46:55.867Z,55.60
2022-10-25T15:52:11.159Z,55.60
2022-10-25T15:54:46.288Z,55.60
2022-10-25T15:57:19.933Z,55.60
2022-10-25T15:59:53.714Z,55.50
2022-10-25T16:02:28.704Z,55.50
2022-10-25T16:05:02.534Z,55.40
2022-10-25T16:07:36.350Z,55.50
2022-10-25T16:10:11.639Z,55.30
2022-10-25T16:12:47.065Z,55.20
2022-10-25T16:15:21.344Z,55.30
2022-10-25T16:17:55.062Z,55.10
2022-10-25T16:20:29.757Z,55.20
2022-10-25T16:23:03.322Z,55.20
2022-10-25T16:25:38.300Z,55.40
2022-10-25T16:28:13.872Z,55.40
2022-10-25T16:30:48.073Z,55.20
2022-10-25T16:33:21.707Z,55.10
2022-10-25T16:35:55.264Z,55.00
2022-10-25T16:38:28.808Z,55.00
2022-10-25T16:41:03.856Z,55.00
2022-10-25T16:43:37.496Z,55.00
2022-10-25T16:46:11.035Z,55.50
2022-10-25T16:48:44.669Z,55.60
2022-10-25T16:51:18.790Z,56.20
2022-10-25T16:53:52.462Z,56.70
2022-10-25T16:56:27.412Z,57.00
2022-10-25T16:59:01.051Z,57.20
2022-10-25T17:01:40.037Z,57.20
2022-10-25T17:04:16.110Z,57.20
2022-10-25T17:06:49.813Z,56.80
2022-10-25T17:09:23.466Z,56.80
2022-10-25T17:11:58.396Z,56.60
2022-10-25T17:14:32.052Z,57.30
2022-10-25T17:17:06.267Z,57.50
2022-10-25T17:19:39.848Z,57.10
2022-10-25T17:22:13.381Z,57.80
2022-10-25T17:24:47.067Z,57.20
2022-10-25T17:27:22.016Z,57.00
2022-10-25T17:29:55.682Z,57.00
2022-10-25T17:32:29.187Z,56.70
2022-10-25T17:35:02.788Z,56.40
2022-10-25T17:37:36.661Z,56.30
2022-10-25T17:40:10.788Z,56.10
2022-10-25T17:42:46.156Z,56.20
2022-10-25T17:45:21.292Z,55.90
2022-10-25T17:47:54.997Z,55.80
2022-10-25T17:50:28.735Z,55.70
2022-10-25T17:53:02.253Z,56.00
2022-10-25T17:55:39.085Z,56.40
2022-10-25T17:58:15.905Z,55.90
2022-10-25T18:00:49.456Z,56.10
2022-10-25T18:03:23.061Z,55.70
2022-10-25T18:06:00.952Z,55.50
2022-10-25T18:08:34.782Z,55.10
2022-10-25T18:11:12.053Z,55.00
2022-10-25T18:13:47.259Z,54.60
2022-10-25T18:16:22.065Z,54.60
2022-10-25T18:18:57.042Z,54.30
2022-10-25T18:21:31.808Z,54.00
2022-10-25T18:24:06.158Z,54.10
2022-10-25T18:26:39.822Z,54.10
2022-10-25T18:29:14.815Z,53.90
2022-10-25T18:31:48.401Z,54.00
2022-10-25T18:34:21.971Z,54.00
2022-10-25T18:36:55.789Z,54.00
2022-10-25T18:39:29.367Z,53.90
2022-10-25T18:42:02.956Z,53.90
2022-10-25T18:44:40.148Z,53.80
2022-10-25T18:47:13.727Z,53.10
2022-10-25T18:49:47.513Z,52.20
2022-10-25T18:52:22.419Z,51.70
2022-10-25T18:54:55.999Z,52.20
2022-10-25T18:57:30.475Z,52.50
2022-10-25T19:00:05.855Z,52.80
2022-10-25T19:02:39.549Z,52.80
2022-10-25T19:05:13.281Z,52.80
2022-10-25T19:07:47.138Z,52.90
2022-10-25T19:10:20.894Z,52.90
2022-10-25T19:12:54.488Z,52.90
2022-10-25T19:15:29.470Z,53.50
2022-10-25T19:18:02.994Z,53.00
2022-10-25T19:20:40.887Z,52.90
2022-10-25T19:23:17.761Z,53.00
2022-10-25T19:25:51.637Z,52.90
2022-10-25T19:28:25.347Z,52.90
2022-10-25T19:31:05.010Z,52.90
2022-10-25T19:33:38.637Z,52.90
2022-10-25T19:36:12.808Z,52.90
2022-10-25T19:38:48.397Z,53.00
2022-10-25T19:41:23.601Z,52.90
2022-10-25T19:43:58.788Z,52.90
2022-10-25T19:46:33.800Z,52.90
2022-10-25T19:49:07.502Z,52.80
2022-10-25T19:51:41.030Z,52.80
2022-10-25T19:54:14.647Z,52.80
2022-10-25T19:56:48.663Z,52.80
2022-10-25T19:59:22.744Z,52.80
2022-10-25T20:01:58.332Z,52.40
2022-10-25T20:04:32.482Z,52.90
2022-10-25T20:07:06.215Z,53.00
2022-10-25T20:09:41.312Z,53.00
2022-10-25T20:12:14.963Z,53.00
2022-10-25T20:14:48.624Z,53.00
2022-10-25T20:17:23.855Z,53.00
2022-10-25T20:19:57.697Z,53.00
2022-10-25T20:22:32.301Z,53.00
2022-10-25T20:25:07.246Z,52.90
2022-10-25T20:27:41.223Z,52.90
2022-10-25T20:30:15.376Z,53.00
2022-10-25T20:32:50.592Z,52.90
2022-10-25T20:35:26.303Z,52.90
2022-10-25T20:38:00.813Z,52.90
2022-10-25T20:40:35.132Z,52.90
2022-10-25T20:43:08.957Z,52.90
2022-10-25T20:45:44.315Z,52.90
2022-10-25T20:48:19.563Z,52.90
2022-10-25T20:50:53.541Z,52.90
2022-10-25T20:53:27.416Z,52.90
2022-10-25T20:56:01.221Z,52.90
2022-10-25T20:58:35.550Z,52.90
2022-10-25T21:01:09.440Z,52.90
2022-10-25T21:03:44.840Z,52.80
2022-10-25T21:06:18.536Z,52.90
2022-10-25T21:08:52.144Z,52.90
2022-10-25T21:11:29.383Z,52.90
2022-10-25T21:14:03.077Z,52.90
2022-10-25T21:16:37.157Z,52.90
2022-10-25T21:19:12.676Z,52.90
2022-10-25T21:21:46.459Z,52.90
2022-10-25T21:24:20.313Z,52.90
2022-10-25T21:26:54.779Z,52.80
2022-10-25T21:29:28.666Z,52.80
2022-10-25T21:32:02.703Z,52.90
2022-10-25T21:34:37.845Z,52.80
2022-10-25T21:37:11.676Z,52.80
2022-10-25T21:39:47.756Z,52.80
2022-10-25T21:42:21.388Z,52.90
2022-10-25T21:44:55.190Z,52.80
2022-10-25T21:47:28.985Z,52.80
2022-10-25T21:50:04.121Z,52.80
2022-10-25T21:52:38.072Z,52.80
2022-10-25T21:55:11.857Z,52.70
2022-10-25T21:57:48.109Z,52.80
2022-10-25T22:00:23.960Z,53.30
2022-10-25T22:02:57.713Z,52.70
2022-10-25T22:05:32.758Z,52.70
2022-10-25T22:08:06.519Z,52.70
2022-10-25T22:10:40.238Z,52.70
2022-10-25T22:13:13.940Z,52.70
2022-10-25T22:15:55.982Z,52.60
2022-10-25T22:18:30.121Z,52.60
2022-10-25T22:21:05.949Z,52.60
2022-10-25T22:23:40.330Z,52.60
2022-10-25T22:26:15.968Z,52.60
2022-10-25T22:28:52.990Z,52.70
2022-10-25T22:31:27.719Z,52.60
2022-10-25T22:34:02.562Z,52.60
2022-10-25T22:36:38.812Z,52.60
2022-10-25T22:39:12.683Z,52.60
2022-10-25T22:41:46.564Z,52.60
2022-10-25T22:44:23.351Z,52.60
2022-10-25T22:46:57.302Z,52.50
2022-10-25T22:49:31.085Z,52.60
2022-10-25T22:52:06.565Z,52.60
2022-10-25T22:54:40.235Z,52.50
2022-10-25T22:57:13.898Z,52.60
2022-10-25T22:59:47.595Z,52.50
2022-10-25T23:02:21.321Z,52.50
2022-10-25T23:04:55.144Z,52.50
2022-10-25T23:07:30.128Z,53.00
2022-10-25T23:10:03.756Z,52.40
2022-10-25T23:12:37.317Z,52.50
2022-10-25T23:15:11.368Z,52.40
2022-10-25T23:20:19.476Z,53.10
2022-10-25T23:22:54.688Z,53.30
2022-10-25T23:25:28.416Z,53.50
2022-10-25T23:28:02.017Z,53.80
2022-10-25T23:30:35.975Z,53.90
2022-10-25T23:33:10.490Z,54.10
2022-10-25T23:35:44.133Z,54.50
2022-10-25T23:38:19.224Z,54.50
2022-10-25T23:40:52.876Z,54.70
2022-10-25T23:43:26.697Z,54.80
2022-10-25T23:46:00.387Z,54.90
2022-10-25T23:48:34.217Z,54.90
2022-10-25T23:51:09.535Z,55.00
2022-10-25T23:53:45.707Z,55.10
2022-10-25T23:56:19.343Z,55.00
2022-10-25T23:58:53.846Z,55.20
